AAL2453 KBNA-KMEM
Flight info
| Callsign | AAL2453 |
|---|---|
| Flight time | 0h 48m |
| Altitude | 26000 |
| Route | DANLS4 DANLS SPKER BLUZZ5 |
| Aircraft | A319/M-SDE3FGHIRWY/LB1 |
Departure
| Time | 2026-05-08 03:28 |
|---|---|
| Airport | Nashville International Airport (KBNA) |
Arrival
| Time | 2026-05-08 04:17 |
|---|---|
| Airport | Memphis International Airport (KMEM) |
| Time | Latitude | Longitude | Altitude | Speed | Heading |
|---|---|---|---|---|---|
| 2026-05-08 02:56 | 36.12972 | -86.67076 | 592 ft | 0 kts | 124° |
| 2026-05-08 03:12 | 36.12976 | -86.67083 | 569 ft | 3 kts | 124° |
| 2026-05-08 03:13 | 36.12987 | -86.67103 | 576 ft | 3 kts | 124° |
| 2026-05-08 03:13 | 36.12997 | -86.67122 | 576 ft | 3 kts | 172° |
| 2026-05-08 03:13 | 36.13008 | -86.67121 | 571 ft | 0 kts | 216° |
| 2026-05-08 03:19 | 36.12980 | -86.67149 | 570 ft | 9 kts | 220° |
| 2026-05-08 03:20 | 36.12924 | -86.67207 | 571 ft | 11 kts | 219° |
| 2026-05-08 03:20 | 36.12864 | -86.67261 | 570 ft | 11 kts | 224° |
| 2026-05-08 03:20 | 36.12806 | -86.67329 | 568 ft | 12 kts | 222° |
| 2026-05-08 03:20 | 36.12750 | -86.67391 | 569 ft | 10 kts | 229° |
| 2026-05-08 03:21 | 36.12746 | -86.67463 | 570 ft | 8 kts | 300° |
| 2026-05-08 03:21 | 36.12791 | -86.67527 | 571 ft | 7 kts | 312° |
| 2026-05-08 03:21 | 36.12793 | -86.67528 | 571 ft | 1 kts | 312° |
| 2026-05-08 03:21 | 36.12824 | -86.67569 | 575 ft | 11 kts | 313° |
| 2026-05-08 03:22 | 36.12881 | -86.67645 | 570 ft | 13 kts | 313° |
| 2026-05-08 03:22 | 36.12949 | -86.67733 | 571 ft | 14 kts | 313° |
| 2026-05-08 03:22 | 36.13014 | -86.67820 | 573 ft | 13 kts | 312° |
| 2026-05-08 03:22 | 36.13073 | -86.67900 | 577 ft | 13 kts | 308° |
| 2026-05-08 03:23 | 36.13055 | -86.67957 | 577 ft | 8 kts | 206° |
| 2026-05-08 03:23 | 36.12961 | -86.67993 | 574 ft | 17 kts | 198° |
| 2026-05-08 03:23 | 36.12856 | -86.68035 | 580 ft | 15 kts | 198° |
| 2026-05-08 03:23 | 36.12758 | -86.68073 | 577 ft | 16 kts | 197° |
| 2026-05-08 03:24 | 36.12642 | -86.68115 | 580 ft | 20 kts | 196° |
| 2026-05-08 03:24 | 36.12495 | -86.68166 | 575 ft | 23 kts | 196° |
| 2026-05-08 03:24 | 36.12331 | -86.68225 | 576 ft | 26 kts | 196° |
| 2026-05-08 03:24 | 36.12157 | -86.68288 | 580 ft | 26 kts | 197° |
| 2026-05-08 03:25 | 36.11978 | -86.68352 | 585 ft | 27 kts | 196° |
| 2026-05-08 03:25 | 36.11805 | -86.68413 | 593 ft | 24 kts | 198° |
| 2026-05-08 03:25 | 36.11747 | -86.68521 | 603 ft | 14 kts | 288° |
| 2026-05-08 03:25 | 36.11750 | -86.68532 | 603 ft | 0 kts | 289° |
| 2026-05-08 03:26 | 36.11760 | -86.68571 | 614 ft | 10 kts | 287° |
| 2026-05-08 03:26 | 36.11829 | -86.68625 | 603 ft | 14 kts | 15° |
| 2026-05-08 03:26 | 36.11837 | -86.68621 | 603 ft | 0 kts | 18° |
| 2026-05-08 03:27 | 36.11838 | -86.68621 | 603 ft | 1 kts | 18° |
| 2026-05-08 03:27 | 36.11840 | -86.68620 | 602 ft | 1 kts | 18° |
| 2026-05-08 03:27 | 36.11848 | -86.68617 | 602 ft | 3 kts | 18° |
| 2026-05-08 03:27 | 36.11991 | -86.68560 | 598 ft | 57 kts | 17° |
| 2026-05-08 03:28 | 36.12613 | -86.68317 | 581 ft | 126 kts | 18° |
| 2026-05-08 03:28 | 36.13579 | -86.67937 | 787 ft | 157 kts | 18° |
| 2026-05-08 03:28 | 36.14670 | -86.67531 | 1418 ft | 165 kts | 16° |
| 2026-05-08 03:28 | 36.15762 | -86.67160 | 2255 ft | 162 kts | 9° |
| 2026-05-08 03:29 | 36.16929 | -86.67235 | 2748 ft | 179 kts | 346° |
| 2026-05-08 03:29 | 36.18211 | -86.67723 | 3163 ft | 205 kts | 345° |
| 2026-05-08 03:29 | 36.19663 | -86.68260 | 3695 ft | 230 kts | 345° |
| 2026-05-08 03:29 | 36.21274 | -86.68850 | 3960 ft | 249 kts | 344° |
| 2026-05-08 03:30 | 36.24629 | -86.70081 | 4591 ft | 253 kts | 343° |
| 2026-05-08 03:30 | 36.27969 | -86.71615 | 5855 ft | 259 kts | 319° |
| 2026-05-08 03:31 | 36.28857 | -86.75758 | 7483 ft | 261 kts | 264° |
| 2026-05-08 03:31 | 36.28119 | -86.80211 | 8202 ft | 265 kts | 258° |
| 2026-05-08 03:32 | 36.27681 | -86.82423 | 9252 ft | 263 kts | 258° |
| 2026-05-08 03:32 | 36.27145 | -86.84588 | 10283 ft | 265 kts | 248° |
| 2026-05-08 03:32 | 36.26217 | -86.86611 | 10910 ft | 281 kts | 243° |
| 2026-05-08 03:32 | 36.25191 | -86.88790 | 11203 ft | 304 kts | 244° |
| 2026-05-08 03:33 | 36.24121 | -86.91102 | 11777 ft | 313 kts | 244° |
| 2026-05-08 03:33 | 36.23037 | -86.93448 | 12626 ft | 314 kts | 245° |
| 2026-05-08 03:33 | 36.21954 | -86.95791 | 13538 ft | 313 kts | 245° |
| 2026-05-08 03:33 | 36.20877 | -86.98124 | 14354 ft | 312 kts | 245° |
| 2026-05-08 03:34 | 36.19802 | -87.00457 | 15092 ft | 312 kts | 245° |
| 2026-05-08 03:34 | 36.18725 | -87.02791 | 15827 ft | 313 kts | 245° |
| 2026-05-08 03:34 | 36.17642 | -87.05135 | 16549 ft | 314 kts | 244° |
| 2026-05-08 03:34 | 36.16556 | -87.07483 | 17276 ft | 315 kts | 244° |
| 2026-05-08 03:35 | 36.15479 | -87.09813 | 17985 ft | 316 kts | 244° |
| 2026-05-08 03:35 | 36.14385 | -87.12178 | 18665 ft | 317 kts | 244° |
| 2026-05-08 03:35 | 36.13272 | -87.14579 | 19307 ft | 318 kts | 244° |
| 2026-05-08 03:35 | 36.12068 | -87.17177 | 20013 ft | 318 kts | 244° |
| 2026-05-08 03:36 | 36.10969 | -87.19549 | 20678 ft | 318 kts | 244° |
| 2026-05-08 03:36 | 36.10001 | -87.21992 | 21306 ft | 315 kts | 251° |
| 2026-05-08 03:36 | 36.09368 | -87.24581 | 21919 ft | 314 kts | 257° |
| 2026-05-08 03:36 | 36.08849 | -87.27241 | 22541 ft | 314 kts | 257° |
| 2026-05-08 03:37 | 36.08325 | -87.29869 | 23140 ft | 315 kts | 256° |
| 2026-05-08 03:37 | 36.07798 | -87.32493 | 23699 ft | 315 kts | 256° |
| 2026-05-08 03:37 | 36.07266 | -87.35131 | 24131 ft | 317 kts | 257° |
| 2026-05-08 03:37 | 36.06731 | -87.37779 | 24554 ft | 318 kts | 257° |
| 2026-05-08 03:38 | 36.06195 | -87.40433 | 24990 ft | 319 kts | 257° |
| 2026-05-08 03:38 | 36.05656 | -87.43093 | 25416 ft | 320 kts | 257° |
| 2026-05-08 03:38 | 36.05116 | -87.45759 | 25843 ft | 320 kts | 257° |
| 2026-05-08 03:38 | 36.04572 | -87.48428 | 26061 ft | 320 kts | 256° |
| 2026-05-08 03:39 | 36.04029 | -87.51093 | 26102 ft | 320 kts | 257° |
| 2026-05-08 03:39 | 36.03486 | -87.53758 | 26104 ft | 320 kts | 256° |
| 2026-05-08 03:39 | 36.02945 | -87.56425 | 26112 ft | 320 kts | 257° |
| 2026-05-08 03:39 | 36.02403 | -87.59089 | 26111 ft | 320 kts | 257° |
| 2026-05-08 03:40 | 36.01859 | -87.61747 | 26112 ft | 320 kts | 256° |
| 2026-05-08 03:40 | 36.01314 | -87.64408 | 26111 ft | 319 kts | 257° |
| 2026-05-08 03:40 | 36.00779 | -87.67031 | 26109 ft | 319 kts | 257° |
| 2026-05-08 03:40 | 36.00238 | -87.69690 | 26109 ft | 319 kts | 257° |
| 2026-05-08 03:41 | 35.99693 | -87.72349 | 26107 ft | 319 kts | 257° |
| 2026-05-08 03:41 | 35.99147 | -87.75008 | 26105 ft | 320 kts | 257° |
| 2026-05-08 03:41 | 35.98601 | -87.77672 | 26101 ft | 319 kts | 257° |
| 2026-05-08 03:41 | 35.98052 | -87.80330 | 26098 ft | 319 kts | 257° |
| 2026-05-08 03:42 | 35.97505 | -87.82987 | 26094 ft | 319 kts | 257° |
| 2026-05-08 03:42 | 35.96959 | -87.85645 | 26094 ft | 319 kts | 257° |
| 2026-05-08 03:42 | 35.96412 | -87.88308 | 26101 ft | 319 kts | 257° |
| 2026-05-08 03:42 | 35.95863 | -87.90962 | 26099 ft | 319 kts | 257° |
| 2026-05-08 03:43 | 35.95313 | -87.93618 | 26098 ft | 320 kts | 257° |
| 2026-05-08 03:43 | 35.94763 | -87.96277 | 26100 ft | 320 kts | 257° |
| 2026-05-08 03:43 | 35.94215 | -87.98933 | 26097 ft | 320 kts | 257° |
| 2026-05-08 03:43 | 35.93665 | -88.01590 | 26099 ft | 320 kts | 257° |
| 2026-05-08 03:44 | 35.93113 | -88.04247 | 26099 ft | 320 kts | 257° |
| 2026-05-08 03:44 | 35.92560 | -88.06906 | 26100 ft | 320 kts | 257° |
| 2026-05-08 03:44 | 35.92005 | -88.09566 | 26115 ft | 320 kts | 257° |
| 2026-05-08 03:44 | 35.91448 | -88.12228 | 26106 ft | 321 kts | 257° |
| 2026-05-08 03:45 | 35.90891 | -88.14893 | 26100 ft | 321 kts | 257° |
| 2026-05-08 03:45 | 35.90332 | -88.17564 | 26100 ft | 322 kts | 257° |
| 2026-05-08 03:45 | 35.89771 | -88.20239 | 26100 ft | 322 kts | 257° |
| 2026-05-08 03:45 | 35.89206 | -88.22917 | 26091 ft | 323 kts | 257° |
| 2026-05-08 03:46 | 35.88643 | -88.25580 | 25577 ft | 320 kts | 257° |
| 2026-05-08 03:46 | 35.88089 | -88.28238 | 24966 ft | 320 kts | 257° |
| 2026-05-08 03:46 | 35.87570 | -88.30925 | 24698 ft | 324 kts | 258° |
| 2026-05-08 03:46 | 35.87066 | -88.33635 | 24430 ft | 325 kts | 258° |
| 2026-05-08 03:47 | 35.86575 | -88.36318 | 24162 ft | 325 kts | 258° |
| 2026-05-08 03:47 | 35.86077 | -88.39041 | 23895 ft | 326 kts | 258° |
| 2026-05-08 03:47 | 35.85577 | -88.41765 | 23616 ft | 326 kts | 258° |
| 2026-05-08 03:47 | 35.85068 | -88.44487 | 23292 ft | 326 kts | 258° |
| 2026-05-08 03:48 | 35.84551 | -88.47207 | 22971 ft | 325 kts | 258° |
| 2026-05-08 03:48 | 35.84031 | -88.49935 | 22660 ft | 329 kts | 258° |
| 2026-05-08 03:48 | 35.83507 | -88.52685 | 22340 ft | 330 kts | 258° |
| 2026-05-08 03:48 | 35.82982 | -88.55439 | 22028 ft | 330 kts | 258° |
| 2026-05-08 03:49 | 35.82458 | -88.58195 | 21716 ft | 330 kts | 258° |
| 2026-05-08 03:49 | 35.81936 | -88.60941 | 21417 ft | 329 kts | 258° |
| 2026-05-08 03:49 | 35.81412 | -88.63686 | 21121 ft | 329 kts | 258° |
| 2026-05-08 03:49 | 35.80887 | -88.66434 | 20820 ft | 329 kts | 258° |
| 2026-05-08 03:50 | 35.80365 | -88.69173 | 20530 ft | 329 kts | 258° |
| 2026-05-08 03:50 | 35.79843 | -88.71913 | 20238 ft | 328 kts | 258° |
| 2026-05-08 03:50 | 35.79321 | -88.74643 | 19951 ft | 328 kts | 258° |
| 2026-05-08 03:50 | 35.78798 | -88.77375 | 19659 ft | 328 kts | 258° |
| 2026-05-08 03:51 | 35.78273 | -88.80103 | 19377 ft | 327 kts | 258° |
| 2026-05-08 03:51 | 35.77745 | -88.82829 | 19098 ft | 327 kts | 258° |
| 2026-05-08 03:51 | 35.77216 | -88.85558 | 18812 ft | 327 kts | 258° |
| 2026-05-08 03:51 | 35.76691 | -88.88290 | 18539 ft | 329 kts | 259° |
| 2026-05-08 03:52 | 35.76168 | -88.91015 | 18239 ft | 324 kts | 259° |
| 2026-05-08 03:52 | 35.75653 | -88.93682 | 18034 ft | 318 kts | 259° |
| 2026-05-08 03:52 | 35.75142 | -88.96329 | 18040 ft | 318 kts | 259° |
| 2026-05-08 03:52 | 35.74631 | -88.98969 | 18033 ft | 315 kts | 258° |
| 2026-05-08 03:53 | 35.74122 | -89.01585 | 18042 ft | 314 kts | 258° |
| 2026-05-08 03:53 | 35.73612 | -89.04197 | 18045 ft | 314 kts | 258° |
| 2026-05-08 03:53 | 35.72838 | -89.06718 | 18032 ft | 318 kts | 246° |
| 2026-05-08 03:53 | 35.71583 | -89.08955 | 17817 ft | 318 kts | 234° |
| 2026-05-08 03:54 | 35.70059 | -89.10906 | 17533 ft | 314 kts | 233° |
| 2026-05-08 03:54 | 35.68556 | -89.12833 | 17244 ft | 312 kts | 233° |
| 2026-05-08 03:54 | 35.67067 | -89.14760 | 16961 ft | 310 kts | 233° |
| 2026-05-08 03:54 | 35.65585 | -89.16683 | 16677 ft | 309 kts | 233° |
| 2026-05-08 03:55 | 35.64111 | -89.18591 | 16395 ft | 308 kts | 233° |
| 2026-05-08 03:55 | 35.62638 | -89.20495 | 16122 ft | 306 kts | 233° |
| 2026-05-08 03:55 | 35.61174 | -89.22389 | 15845 ft | 305 kts | 233° |
| 2026-05-08 03:55 | 35.59712 | -89.24273 | 15567 ft | 304 kts | 233° |
| 2026-05-08 03:56 | 35.58249 | -89.26155 | 15297 ft | 304 kts | 233° |
| 2026-05-08 03:56 | 35.56790 | -89.28028 | 15030 ft | 303 kts | 233° |
| 2026-05-08 03:56 | 35.55335 | -89.29893 | 14765 ft | 302 kts | 233° |
| 2026-05-08 03:56 | 35.54375 | -89.31122 | 14590 ft | 301 kts | 233° |
| 2026-05-08 03:57 | 35.52928 | -89.32973 | 14331 ft | 300 kts | 233° |
| 2026-05-08 03:57 | 35.51486 | -89.34815 | 14073 ft | 299 kts | 233° |
| 2026-05-08 03:57 | 35.50051 | -89.36655 | 13801 ft | 298 kts | 233° |
| 2026-05-08 03:57 | 35.48621 | -89.38490 | 13484 ft | 297 kts | 233° |
| 2026-05-08 03:58 | 35.47192 | -89.40321 | 13198 ft | 297 kts | 233° |
| 2026-05-08 03:58 | 35.45765 | -89.42149 | 12915 ft | 297 kts | 233° |
| 2026-05-08 03:58 | 35.44339 | -89.43978 | 12629 ft | 296 kts | 233° |
| 2026-05-08 03:58 | 35.42913 | -89.45801 | 12349 ft | 296 kts | 233° |
| 2026-05-08 03:59 | 35.41492 | -89.47618 | 12071 ft | 295 kts | 233° |
| 2026-05-08 03:59 | 35.40072 | -89.49434 | 11799 ft | 295 kts | 233° |
| 2026-05-08 03:59 | 35.38656 | -89.51246 | 11525 ft | 294 kts | 233° |
| 2026-05-08 03:59 | 35.37239 | -89.53053 | 11256 ft | 294 kts | 233° |
| 2026-05-08 04:00 | 35.35825 | -89.54856 | 10989 ft | 293 kts | 233° |
| 2026-05-08 04:00 | 35.34410 | -89.56657 | 10723 ft | 293 kts | 233° |
| 2026-05-08 04:00 | 35.32999 | -89.58451 | 10462 ft | 293 kts | 233° |
| 2026-05-08 04:00 | 35.31596 | -89.60238 | 10202 ft | 287 kts | 233° |
| 2026-05-08 04:01 | 35.30229 | -89.61968 | 10041 ft | 276 kts | 233° |
| 2026-05-08 04:01 | 35.28922 | -89.63615 | 10035 ft | 263 kts | 233° |
| 2026-05-08 04:01 | 35.27664 | -89.65210 | 10018 ft | 259 kts | 233° |
| 2026-05-08 04:01 | 35.26414 | -89.66804 | 9864 ft | 259 kts | 233° |
| 2026-05-08 04:02 | 35.25169 | -89.68395 | 9678 ft | 259 kts | 233° |
| 2026-05-08 04:02 | 35.23922 | -89.69984 | 9476 ft | 259 kts | 233° |
| 2026-05-08 04:02 | 35.22675 | -89.71570 | 9292 ft | 259 kts | 233° |
| 2026-05-08 04:02 | 35.21426 | -89.73157 | 9116 ft | 260 kts | 233° |
| 2026-05-08 04:03 | 35.20171 | -89.74755 | 8929 ft | 260 kts | 232° |
| 2026-05-08 04:03 | 35.17649 | -89.77957 | 8572 ft | 262 kts | 232° |
| 2026-05-08 04:03 | 35.16383 | -89.79559 | 8397 ft | 263 kts | 232° |
| 2026-05-08 04:04 | 35.15123 | -89.81148 | 8219 ft | 256 kts | 232° |
| 2026-05-08 04:04 | 35.13908 | -89.82677 | 8041 ft | 246 kts | 232° |
| 2026-05-08 04:04 | 35.12736 | -89.84150 | 7885 ft | 236 kts | 232° |
| 2026-05-08 04:04 | 35.11586 | -89.85525 | 7758 ft | 229 kts | 223° |
| 2026-05-08 04:05 | 35.10161 | -89.86419 | 7642 ft | 236 kts | 202° |
| 2026-05-08 04:05 | 35.08507 | -89.86621 | 7521 ft | 243 kts | 185° |
| 2026-05-08 04:05 | 35.06812 | -89.86589 | 7400 ft | 243 kts | 185° |
| 2026-05-08 04:05 | 35.05121 | -89.86562 | 7279 ft | 243 kts | 185° |
| 2026-05-08 04:06 | 35.03434 | -89.86539 | 7138 ft | 241 kts | 184° |
| 2026-05-08 04:06 | 35.01758 | -89.86517 | 6850 ft | 241 kts | 184° |
| 2026-05-08 04:06 | 35.00085 | -89.86496 | 6567 ft | 240 kts | 183° |
| 2026-05-08 04:06 | 34.98420 | -89.86471 | 6245 ft | 240 kts | 182° |
| 2026-05-08 04:07 | 34.96750 | -89.86447 | 5918 ft | 240 kts | 182° |
| 2026-05-08 04:07 | 34.95082 | -89.86429 | 5610 ft | 239 kts | 181° |
| 2026-05-08 04:07 | 34.93419 | -89.86412 | 5304 ft | 239 kts | 181° |
| 2026-05-08 04:07 | 34.91754 | -89.86393 | 4982 ft | 239 kts | 180° |
| 2026-05-08 04:08 | 34.90095 | -89.86374 | 4674 ft | 238 kts | 180° |
| 2026-05-08 04:08 | 34.88440 | -89.86350 | 4384 ft | 237 kts | 179° |
| 2026-05-08 04:08 | 34.86821 | -89.86327 | 4128 ft | 234 kts | 179° |
| 2026-05-08 04:08 | 34.85167 | -89.86306 | 4028 ft | 235 kts | 179° |
| 2026-05-08 04:09 | 34.83533 | -89.86285 | 4035 ft | 236 kts | 179° |
| 2026-05-08 04:09 | 34.81912 | -89.86267 | 4023 ft | 234 kts | 180° |
| 2026-05-08 04:09 | 34.80336 | -89.86645 | 3716 ft | 232 kts | 209° |
| 2026-05-08 04:09 | 34.79221 | -89.87951 | 3555 ft | 218 kts | 245° |
| 2026-05-08 04:10 | 34.78822 | -89.89678 | 3438 ft | 205 kts | 265° |
| 2026-05-08 04:10 | 34.78648 | -89.91366 | 3303 ft | 197 kts | 268° |
| 2026-05-08 04:10 | 34.78825 | -89.92945 | 3106 ft | 184 kts | 303° |
| 2026-05-08 04:10 | 34.79690 | -89.93947 | 3063 ft | 165 kts | 333° |
| 2026-05-08 04:11 | 34.80661 | -89.94557 | 3026 ft | 155 kts | 337° |
| 2026-05-08 04:11 | 34.81641 | -89.95126 | 3030 ft | 152 kts | 338° |
| 2026-05-08 04:11 | 34.82574 | -89.95704 | 3032 ft | 153 kts | 330° |
| 2026-05-08 04:11 | 34.83490 | -89.96341 | 3036 ft | 150 kts | 341° |
| 2026-05-08 04:12 | 34.84487 | -89.96762 | 3043 ft | 154 kts | 345° |
| 2026-05-08 04:12 | 34.85493 | -89.97152 | 3037 ft | 150 kts | 344° |
| 2026-05-08 04:12 | 34.86474 | -89.97536 | 3038 ft | 147 kts | 345° |
| 2026-05-08 04:12 | 34.87447 | -89.97922 | 3038 ft | 146 kts | 344° |
| 2026-05-08 04:13 | 34.88420 | -89.98272 | 3032 ft | 147 kts | 354° |
| 2026-05-08 04:13 | 34.89432 | -89.98357 | 3041 ft | 145 kts | 358° |
| 2026-05-08 04:13 | 34.90440 | -89.98408 | 3043 ft | 144 kts | 359° |
| 2026-05-08 04:13 | 34.91428 | -89.98442 | 2808 ft | 141 kts | 1° |
| 2026-05-08 04:14 | 34.92411 | -89.98469 | 2459 ft | 143 kts | 359° |
| 2026-05-08 04:14 | 34.93407 | -89.98494 | 2115 ft | 143 kts | 0° |
| 2026-05-08 04:14 | 34.94390 | -89.98516 | 1739 ft | 140 kts | 1° |
| 2026-05-08 04:14 | 34.95324 | -89.98540 | 1459 ft | 128 kts | 0° |
| 2026-05-08 04:15 | 34.96154 | -89.98549 | 1307 ft | 112 kts | 0° |
| 2026-05-08 04:15 | 34.96968 | -89.98534 | 1074 ft | 134 kts | 2° |
| 2026-05-08 04:15 | 34.97954 | -89.98529 | 1318 ft | 146 kts | 359° |
| 2026-05-08 04:15 | 34.98963 | -89.98609 | 1155 ft | 144 kts | 356° |
| 2026-05-08 04:16 | 34.99960 | -89.98638 | 906 ft | 144 kts | 357° |
| 2026-05-08 04:16 | 35.00965 | -89.98659 | 690 ft | 143 kts | 358° |
| 2026-05-08 04:16 | 35.01949 | -89.98687 | 457 ft | 141 kts | 358° |
| 2026-05-08 04:16 | 35.02909 | -89.98707 | 318 ft | 126 kts | 358° |
| 2026-05-08 04:17 | 35.03467 | -89.98718 | 315 ft | 40 kts | 0° |
| 2026-05-08 04:17 | 35.03635 | -89.98702 | 313 ft | 15 kts | 34° |
| 2026-05-08 04:17 | 35.03666 | -89.98613 | 313 ft | 0 kts | 60° |
| 2026-05-08 04:18 | 35.03666 | -89.98611 | 313 ft | 1 kts | 59° |
| 2026-05-08 04:18 | 35.03710 | -89.98585 | 311 ft | 16 kts | 9° |
| 2026-05-08 04:18 | 35.03794 | -89.98580 | 308 ft | 8 kts | 355° |
| 2026-05-08 04:18 | 35.03866 | -89.98560 | 307 ft | 12 kts | 39° |
| 2026-05-08 04:19 | 35.03880 | -89.98467 | 306 ft | 14 kts | 89° |
| 2026-05-08 04:19 | 35.03884 | -89.98337 | 307 ft | 15 kts | 81° |